Time;durP1;ratioP1;P1;durP2;ratioP2;P2;SDS_P1;SDS_P2;PMS_P1;PMS_P2;Temp;Humidity;BMP_temperature;BMP_pressure;BME280_temperature;BME280_humidity;BME280_pressure;Samples;Min_cycle;Max_cycle;Signal;HPM_P1;HPM_P2
2023/09/03 00:03:05;;;;;;;50.42;34.25;;;;;16.10;101951.00;;;;10444831;27;20254;-80
2023/09/03 00:08:06;;;;;;;46.97;32.83;;;;;16.10;101939.00;;;;10437887;27;20253;-80
2023/09/03 00:13:08;;;;;;;48.05;32.65;;;;;16.10;101931.00;;;;10413551;27;20907;-80
2023/09/03 00:18:11;;;;;;;51.72;34.38;;;;;16.10;101923.00;;;;10454906;27;20342;-80
2023/09/03 00:23:15;;;;;;;42.45;32.28;;;;;16.00;101934.00;;;;10423757;27;20214;-80
2023/09/03 00:28:16;;;;;;;45.03;31.45;;;;;16.00;101931.00;;;;10472774;27;20822;-79
2023/09/03 00:33:18;;;;;;;45.58;30.83;;;;;15.90;101934.00;;;;10436989;27;20368;-80
2023/09/03 00:38:19;;;;;;;47.00;32.13;;;;;15.80;101946.00;;;;10471177;28;20200;-80
2023/09/03 00:43:21;;;;;;;50.17;34.20;;;;;15.80;101938.00;;;;10438273;27;20209;-80
2023/09/03 00:48:26;;;;;;;54.85;34.38;;;;;15.70;101936.00;;;;10436498;27;20292;-79
2023/09/03 00:53:30;;;;;;;56.97;36.50;;;;;15.60;101946.00;;;;10454336;27;20224;-80
2023/09/03 00:58:34;;;;;;;55.35;35.20;;;;;15.60;101948.00;;;;10436670;27;20204;-80
2023/09/03 01:03:36;;;;;;;52.58;34.15;;;;;15.60;101948.00;;;;10475369;27;20199;-81
2023/09/03 01:08:38;;;;;;;56.75;35.05;;;;;15.50;101940.00;;;;10438369;27;20555;-81
2023/09/03 01:13:53;;;;;;;53.55;34.78;;;;;15.50;101955.00;;;;10453957;27;20224;-80
2023/09/03 01:18:56;;;;;;;53.72;34.67;;;;;15.50;101979.00;;;;10436373;28;20210;-81
2023/09/03 01:24:04;;;;;;;57.85;34.58;;;;;15.50;101990.00;;;;10461802;27;20848;-81
2023/09/03 01:29:07;;;;;;;60.22;36.50;;;;;15.40;101987.00;;;;10446248;27;20879;-81
2023/09/03 01:34:08;;;;;;;55.78;35.05;;;;;15.40;101988.00;;;;10463645;27;20224;-80
2023/09/03 01:39:10;;;;;;;64.30;36.45;;;;;15.30;101988.00;;;;10480573;28;20204;-80
2023/09/03 01:44:11;;;;;;;57.67;36.58;;;;;15.30;101991.00;;;;10462003;27;20213;-81
2023/09/03 01:49:19;;;;;;;58.17;36.10;;;;;15.20;101999.00;;;;10444993;27;20299;-80
2023/09/03 01:54:22;;;;;;;70.60;38.42;;;;;15.20;102006.00;;;;10466730;27;20252;-80
2023/09/03 01:59:32;;;;;;;69.10;39.88;;;;;15.20;101996.00;;;;10458952;27;21114;-80
2023/09/03 02:04:40;;;;;;;58.50;36.65;;;;;15.20;101981.00;;;;10447876;27;20207;-79
2023/09/03 02:09:41;;;;;;;54.13;34.70;;;;;15.10;101976.00;;;;10427172;28;20382;-81
2023/09/03 02:14:43;;;;;;;61.80;36.90;;;;;15.10;101969.00;;;;10447031;28;20278;-80
2023/09/03 02:19:44;;;;;;;69.47;38.80;;;;;15.00;101970.00;;;;10446465;27;20217;-80
2023/09/03 02:24:46;;;;;;;66.88;41.08;;;;;15.00;101961.00;;;;10479129;27;20232;-80
2023/09/03 02:29:47;;;;;;;66.60;39.72;;;;;15.10;101976.00;;;;10461449;28;20206;-80
2023/09/03 02:34:48;;;;;;;72.32;39.80;;;;;15.10;101992.00;;;;10447234;27;20245;-80
2023/09/03 02:39:52;;;;;;;62.67;36.30;;;;;15.00;101999.00;;;;10441946;28;20218;-81
2023/09/03 02:44:53;;;;;;;60.78;36.83;;;;;15.00;101985.00;;;;10431553;27;20927;-80
2023/09/03 02:49:54;;;;;;;57.22;35.35;;;;;14.90;101988.00;;;;10453394;27;20203;-79
2023/09/03 02:54:56;;;;;;;63.47;34.80;;;;;14.80;101987.00;;;;10449260;27;20216;-80
2023/09/03 02:59:57;;;;;;;61.83;37.38;;;;;14.80;102003.00;;;;10441185;27;20212;-80
2023/09/03 03:04:59;;;;;;;62.50;36.28;;;;;14.70;101993.00;;;;10443523;27;21844;-81
2023/09/03 03:10:00;;;;;;;58.38;36.20;;;;;14.70;102011.00;;;;10442355;27;20228;-80
2023/09/03 03:15:02;;;;;;;62.22;36.15;;;;;14.60;102033.00;;;;10439782;27;20196;-80
2023/09/03 03:20:05;;;;;;;67.65;35.53;;;;;14.70;102042.00;;;;10451034;27;20285;-80
2023/09/03 03:25:06;;;;;;;66.63;37.28;;;;;14.70;102036.00;;;;10418598;27;20218;-80
2023/09/03 03:30:08;;;;;;;63.47;36.97;;;;;14.70;102032.00;;;;10459248;27;20256;-80
2023/09/03 03:35:10;;;;;;;67.32;37.92;;;;;14.60;102030.00;;;;10443291;28;20204;-81
2023/09/03 03:40:12;;;;;;;66.47;36.38;;;;;14.60;102027.00;;;;10459601;28;20204;-79
2023/09/03 03:45:14;;;;;;;74.38;40.33;;;;;14.50;102014.00;;;;10476750;27;20972;-80
2023/09/03 03:50:15;;;;;;;76.80;40.72;;;;;14.60;102012.00;;;;10458128;27;21576;-80
2023/09/03 03:55:17;;;;;;;78.20;39.72;;;;;14.50;102006.00;;;;10425204;27;20211;-80
2023/09/03 04:00:20;;;;;;;74.65;40.35;;;;;14.50;102000.00;;;;10457971;27;20227;-80
2023/09/03 04:05:22;;;;;;;87.47;42.35;;;;;14.40;102003.00;;;;10452162;28;20204;-80
2023/09/03 04:10:24;;;;;;;96.57;42.08;;;;;14.40;102002.00;;;;10440872;27;20268;-80
2023/09/03 04:15:26;;;;;;;109.53;47.38;;;;;14.50;102025.00;;;;10441358;27;20695;-80
2023/09/03 04:20:27;;;;;;;93.10;45.00;;;;;14.50;102026.00;;;;10454736;27;20211;-80
2023/09/03 04:25:28;;;;;;;97.22;47.60;;;;;14.60;102019.00;;;;10439075;27;21049;-80
2023/09/03 04:30:30;;;;;;;116.22;48.03;;;;;14.70;101994.00;;;;10438361;27;20230;-80
2023/09/03 04:35:33;;;;;;;298.90;55.40;;;;;14.80;101991.00;;;;10415981;27;20215;-80
2023/09/03 04:40:35;;;;;;;343.10;58.97;;;;;14.90;102002.00;;;;10396171;27;20207;-80
2023/09/03 04:45:47;;;;;;;307.98;54.05;;;;;14.90;102005.00;;;;10396699;27;20722;-81
2023/09/03 04:50:49;;;;;;;340.90;55.17;;;;;15.00;102025.00;;;;10398565;27;21347;-80
2023/09/03 04:55:50;;;;;;;228.30;48.28;;;;;15.00;102028.00;;;;10414281;27;20215;-80
2023/09/03 05:00:51;;;;;;;310.17;54.28;;;;;15.00;102028.00;;;;10417912;27;20337;-80
2023/09/03 05:05:53;;;;;;;250.98;52.78;;;;;15.00;102046.00;;;;10453374;27;21417;-80
2023/09/03 05:10:54;;;;;;;238.07;51.47;;;;;15.00;102058.00;;;;10418505;27;20416;-80
2023/09/03 05:15:57;;;;;;;249.05;54.45;;;;;15.00;102070.00;;;;10404843;27;20219;-79
2023/09/03 05:20:58;;;;;;;194.80;44.28;;;;;15.10;102057.00;;;;10384158;27;20209;-79
2023/09/03 05:26:00;;;;;;;150.57;43.78;;;;;15.10;102076.00;;;;10437347;27;20208;-79
2023/09/03 05:31:02;;;;;;;120.40;41.35;;;;;15.10;102094.00;;;;10419078;27;20221;-80
2023/09/03 05:36:05;;;;;;;137.55;42.08;;;;;15.10;102091.00;;;;10433987;27;20208;-79
2023/09/03 05:41:07;;;;;;;191.18;47.38;;;;;15.20;102086.00;;;;10436429;27;20223;-80
2023/09/03 05:46:08;;;;;;;168.05;44.33;;;;;15.30;102080.00;;;;10400645;27;20208;-80
2023/09/03 05:51:11;;;;;;;220.73;48.75;;;;;15.40;102092.00;;;;10431811;27;21353;-80
2023/09/03 05:56:15;;;;;;;243.65;47.53;;;;;15.50;102100.00;;;;10434527;27;20244;-80
2023/09/03 06:01:20;;;;;;;230.43;46.72;;;;;15.50;102108.00;;;;10416864;27;20239;-80
2023/09/03 06:06:21;;;;;;;163.07;47.55;;;;;15.60;102112.00;;;;10435027;27;21534;-79
2023/09/03 06:11:23;;;;;;;186.98;45.80;;;;;15.70;102108.00;;;;10414146;27;20208;-81
2023/09/03 06:16:25;;;;;;;170.38;45.17;;;;;15.80;102107.00;;;;10434100;27;20200;-79
2023/09/03 06:21:26;;;;;;;231.18;51.60;;;;;16.00;102098.00;;;;10421567;27;20208;-80
2023/09/03 06:26:28;;;;;;;207.90;42.97;;;;;16.10;102116.00;;;;10419606;27;20208;-80
2023/09/03 06:31:29;;;;;;;154.18;41.75;;;;;16.10;102122.00;;;;10433560;27;21268;-80
2023/09/03 06:36:30;;;;;;;117.15;43.25;;;;;16.20;102146.00;;;;10435205;27;21239;-80
2023/09/03 06:41:31;;;;;;;170.35;42.92;;;;;16.50;102146.00;;;;10452397;27;20337;-80
2023/09/03 06:46:33;;;;;;;159.73;40.55;;;;;16.80;102154.00;;;;10442123;27;20218;-80
2023/09/03 06:51:35;;;;;;;144.23;41.85;;;;;16.90;102147.00;;;;10443062;28;20947;-80
2023/09/03 06:56:36;;;;;;;99.30;46.20;;;;;17.20;102144.00;;;;10458002;27;20788;-80
2023/09/03 07:01:37;;;;;;;104.25;45.80;;;;;17.20;102151.00;;;;10477150;27;20201;-80
2023/09/03 07:06:39;;;;;;;100.72;45.53;;;;;17.40;102149.00;;;;10440973;27;20235;-80
2023/09/03 07:11:40;;;;;;;76.13;43.17;;;;;17.60;102157.00;;;;10458496;27;20289;-80
2023/09/03 07:16:41;;;;;;;82.28;44.88;;;;;17.90;102151.00;;;;10458374;27;20201;-80
2023/09/03 07:21:43;;;;;;;81.30;43.10;;;;;17.80;102154.00;;;;10459039;27;20214;-80
2023/09/03 07:26:44;;;;;;;90.63;48.08;;;;;18.20;102159.00;;;;10459016;28;20281;-80
2023/09/03 07:31:46;;;;;;;94.07;49.08;;;;;18.60;102170.00;;;;10439803;28;20347;-80
2023/09/03 07:36:47;;;;;;;85.97;49.22;;;;;18.90;102173.00;;;;10442416;28;21196;-80
2023/09/03 07:41:48;;;;;;;88.57;49.47;;;;;19.10;102182.00;;;;10459091;27;20234;-80
2023/09/03 07:46:50;;;;;;;84.72;48.95;;;;;18.80;102198.00;;;;10438943;27;20220;-80
2023/09/03 07:51:52;;;;;;;80.82;49.03;;;;;19.10;102202.00;;;;10427146;27;20700;-81
2023/09/03 07:56:56;;;;;;;105.88;55.85;;;;;20.00;102206.00;;;;10440221;27;20209;-80
2023/09/03 08:01:58;;;;;;;78.20;51.55;;;;;20.10;102208.00;;;;10454715;27;20232;-81
2023/09/03 08:07:00;;;;;;;78.75;50.17;;;;;20.20;102208.00;;;;10471010;27;20232;-81
2023/09/03 08:12:02;;;;;;;70.35;48.67;;;;;20.20;102205.00;;;;10442648;27;20232;-81
2023/09/03 08:17:04;;;;;;;63.38;46.42;;;;;20.30;102213.00;;;;10453316;27;20197;-81
2023/09/03 08:22:05;;;;;;;63.47;48.20;;;;;20.40;102212.00;;;;10438745;27;20312;-81
2023/09/03 08:27:07;;;;;;;56.05;42.72;;;;;20.50;102216.00;;;;10453928;27;20302;-80
2023/09/03 08:32:08;;;;;;;61.05;43.67;;;;;20.90;102210.00;;;;10447002;27;20290;-80
2023/09/03 08:37:09;;;;;;;52.20;39.33;;;;;21.40;102217.00;;;;10443041;27;20216;-80
2023/09/03 08:42:13;;;;;;;47.13;37.83;;;;;22.20;102212.00;;;;10444043;27;20208;-80
2023/09/03 08:47:17;;;;;;;44.03;35.90;;;;;22.80;102209.00;;;;10411449;27;20230;-81
2023/09/03 08:52:19;;;;;;;39.28;34.38;;;;;23.80;102228.00;;;;10413202;27;20224;-80
2023/09/03 08:57:26;;;;;;;35.78;30.83;;;;;24.50;102220.00;;;;10426663;27;20280;-80
2023/09/03 09:02:29;;;;;;;38.10;30.70;;;;;24.60;102225.00;;;;10452848;27;20196;-81
2023/09/03 09:07:32;;;;;;;35.17;28.88;;;;;24.30;102221.00;;;;10453654;27;20216;-80
2023/09/03 09:12:59;;;;;;;36.63;29.70;;;;;24.30;102227.00;;;;10429698;27;20536;-80
2023/09/03 09:18:01;;;;;;;34.85;28.90;;;;;24.50;102232.00;;;;10434382;27;20208;-80
2023/09/03 09:23:02;;;;;;;31.83;27.10;;;;;24.70;102235.00;;;;10433662;27;20215;-81
2023/09/03 09:28:12;;;;;;;30.05;26.48;;;;;24.90;102230.00;;;;10446389;27;20208;-80
2023/09/03 09:33:13;;;;;;;28.35;25.35;;;;;24.90;102233.00;;;;10449736;27;20957;-80
2023/09/03 09:38:17;;;;;;;27.35;22.98;;;;;24.90;102238.00;;;;10432397;28;20288;-82
2023/09/03 09:43:18;;;;;;;27.35;22.08;;;;;25.20;102219.00;;;;10416166;27;20243;-82
2023/09/03 09:48:20;;;;;;;26.20;21.63;;;;;25.50;102221.00;;;;10426573;27;20212;-80
2023/09/03 09:53:26;;;;;;;24.02;21.30;;;;;25.60;102238.00;;;;10436135;27;20641;-81
2023/09/03 09:58:36;;;;;;;22.15;19.77;;;;;25.90;102225.00;;;;10401068;27;20239;-81
2023/09/03 10:03:45;;;;;;;21.30;18.98;;;;;26.10;102219.00;;;;10456782;27;20215;-80
2023/09/03 10:08:50;;;;;;;19.25;17.20;;;;;26.60;102216.00;;;;10418747;27;20206;-82
2023/09/03 10:13:55;;;;;;;20.58;17.60;;;;;27.10;102226.00;;;;10409708;27;20341;-83
2023/09/03 10:19:00;;;;;;;17.73;15.70;;;;;27.40;102220.00;;;;10408361;27;20205;-81
2023/09/03 10:24:05;;;;;;;16.45;14.75;;;;;27.90;102220.00;;;;10424579;27;20206;-82
2023/09/03 10:29:11;;;;;;;15.95;14.15;;;;;28.00;102218.00;;;;10410171;28;20196;-81
2023/09/03 10:34:16;;;;;;;16.58;14.70;;;;;28.30;102206.00;;;;10427354;27;20235;-82
2023/09/03 10:39:22;;;;;;;13.93;12.48;;;;;28.50;102201.00;;;;10443179;27;20714;-82
2023/09/03 10:44:31;;;;;;;12.63;11.32;;;;;28.50;102206.00;;;;10441029;27;20753;-82
2023/09/03 10:49:52;;;;;;;12.77;11.43;;;;;28.30;102198.00;;;;10425256;27;20336;-81
2023/09/03 10:55:20;;;;;;;11.73;10.52;;;;;27.90;102207.00;;;;10405945;27;20215;-81
2023/09/03 11:00:23;;;;;;;14.55;12.90;;;;;28.00;102203.00;;;;10439843;27;20261;-81
2023/09/03 11:05:27;;;;;;;12.88;11.55;;;;;28.10;102199.00;;;;10408943;28;20208;-80
2023/09/03 11:10:28;;;;;;;13.07;11.70;;;;;28.30;102201.00;;;;10416868;27;20274;-80
2023/09/03 11:15:30;;;;;;;13.40;11.77;;;;;28.30;102207.00;;;;10412739;27;21654;-81
2023/09/03 11:20:33;;;;;;;12.50;11.20;;;;;28.40;102208.00;;;;10449232;27;20208;-81
2023/09/03 11:25:51;;;;;;;13.52;10.88;;;;;28.90;102211.00;;;;10413427;27;20287;-82
2023/09/03 11:31:03;;;;;;;12.07;10.85;;;;;29.20;102208.00;;;;10431562;27;20239;-82
2023/09/03 11:36:04;;;;;;;11.80;10.63;;;;;29.30;102211.00;;;;10447466;27;20291;-81
2023/09/03 11:41:06;;;;;;;14.43;10.85;;;;;29.10;102216.00;;;;10445071;27;20862;-82
2023/09/03 11:46:13;;;;;;;10.60;8.65;;;;;29.10;102214.00;;;;10406064;27;21230;-82
2023/09/03 11:51:22;;;;;;;8.38;7.03;;;;;29.30;102212.00;;;;10418322;27;21381;-82
2023/09/03 11:56:28;;;;;;;8.13;7.25;;;;;28.90;102220.00;;;;10413470;27;20894;-82
2023/09/03 12:01:30;;;;;;;6.78;6.18;;;;;29.10;102206.00;;;;10413202;27;20223;-82
2023/09/03 12:06:37;;;;;;;6.10;5.50;;;;;29.20;102214.00;;;;10399815;28;20466;-83
2023/09/03 12:11:38;;;;;;;7.68;5.63;;;;;29.10;102222.00;;;;10400052;27;20254;-82
2023/09/03 12:16:47;;;;;;;6.30;5.60;;;;;29.00;102218.00;;;;10414359;27;20325;-83
2023/09/03 12:21:52;;;;;;;7.03;6.30;;;;;29.00;102218.00;;;;10432661;27;20227;-82
2023/09/03 12:27:04;;;;;;;6.20;5.60;;;;;29.00;102212.00;;;;10414702;27;20235;-83
2023/09/03 12:32:07;;;;;;;7.28;6.40;;;;;29.00;102210.00;;;;10431440;27;20725;-82
2023/09/03 12:37:09;;;;;;;7.80;7.00;;;;;29.20;102219.00;;;;10415905;27;20625;-83
2023/09/03 12:42:11;;;;;;;8.27;7.50;;;;;29.10;102213.00;;;;10440335;27;20915;-82
2023/09/03 12:47:14;;;;;;;7.47;6.55;;;;;28.90;102222.00;;;;10453527;27;20770;-83
2023/09/03 12:52:15;;;;;;;7.57;6.80;;;;;28.90;102211.00;;;;10454774;27;20210;-82
2023/09/03 12:57:16;;;;;;;7.47;6.78;;;;;28.90;102211.00;;;;10435805;27;20192;-83
2023/09/03 13:02:18;;;;;;;8.18;7.30;;;;;28.60;102222.00;;;;10436895;27;20232;-82
2023/09/03 13:07:19;;;;;;;6.57;5.97;;;;;28.70;102210.00;;;;10435868;28;21789;-82
2023/09/03 13:12:20;;;;;;;8.38;7.15;;;;;29.00;102210.00;;;;10455825;27;20240;-82
2023/09/03 13:17:22;;;;;;;8.90;8.07;;;;;28.90;102205.00;;;;10460219;27;20199;-82
2023/09/03 13:22:23;;;;;;;7.75;7.05;;;;;28.50;102198.00;;;;10429568;27;20220;-82
2023/09/03 13:27:24;;;;;;;8.63;7.72;;;;;28.50;102207.00;;;;10462736;27;20673;-82
2023/09/03 13:32:26;;;;;;;7.22;6.57;;;;;28.10;102206.00;;;;10431442;27;20232;-82
2023/09/03 13:37:27;;;;;;;7.60;6.65;;;;;27.80;102193.00;;;;10449421;27;20232;-82
2023/09/03 13:42:28;;;;;;;7.07;6.38;;;;;27.90;102197.00;;;;10428913;27;21543;-82
2023/09/03 13:47:29;;;;;;;7.45;6.80;;;;;27.80;102193.00;;;;10441439;27;20208;-82
2023/09/03 13:52:31;;;;;;;8.15;6.93;;;;;28.00;102186.00;;;;10459702;27;20204;-81
2023/09/03 13:57:33;;;;;;;7.43;6.72;;;;;28.50;102189.00;;;;10462057;27;20225;-82
2023/09/03 14:02:34;;;;;;;6.15;5.60;;;;;29.10;102184.00;;;;10442313;27;20696;-83
2023/09/03 14:07:36;;;;;;;5.32;4.82;;;;;29.80;102174.00;;;;10453329;27;20761;-82
2023/09/03 14:12:37;;;;;;;5.07;4.63;;;;;30.40;102180.00;;;;10436655;27;20262;-82
2023/09/03 14:17:40;;;;;;;7.72;6.93;;;;;30.10;102185.00;;;;10435397;27;20196;-80
2023/09/03 14:22:43;;;;;;;7.03;5.63;;;;;28.80;102180.00;;;;10431291;27;20220;-81
2023/09/03 14:27:44;;;;;;;7.70;5.50;;;;;28.20;102177.00;;;;10449531;27;20213;-78
2023/09/03 14:32:45;;;;;;;11.25;6.15;;;;;28.40;102178.00;;;;10447363;27;20204;-79
2023/09/03 14:37:46;;;;;;;5.95;5.20;;;;;27.60;102174.00;;;;10432966;27;20205;-81
2023/09/03 14:42:48;;;;;;;5.50;5.00;;;;;27.30;102191.00;;;;10430201;27;21224;-80
2023/09/03 14:47:49;;;;;;;5.60;4.40;;;;;27.10;102185.00;;;;10447725;27;20930;-80
2023/09/03 14:52:51;;;;;;;5.00;4.30;;;;;26.70;102178.00;;;;10407959;27;20618;-79
2023/09/03 14:57:53;;;;;;;4.00;3.60;;;;;26.20;102188.00;;;;10449447;27;21175;-81
2023/09/03 15:02:54;;;;;;;4.05;3.75;;;;;26.10;102184.00;;;;10437614;27;20355;-79
2023/09/03 15:07:55;;;;;;;3.70;3.40;;;;;25.80;102181.00;;;;10452804;27;20225;-80
2023/09/03 15:12:57;;;;;;;3.67;3.38;;;;;25.70;102190.00;;;;10477163;27;20198;-80
2023/09/03 15:17:58;;;;;;;4.95;4.00;;;;;25.60;102194.00;;;;10491236;27;20232;-81
2023/09/03 15:22:59;;;;;;;3.70;3.40;;;;;25.70;102190.00;;;;10477532;27;20351;-81
2023/09/03 15:28:01;;;;;;;6.03;3.83;;;;;25.60;102189.00;;;;10432116;27;20201;-80
2023/09/03 15:33:04;;;;;;;4.28;3.88;;;;;25.50;102188.00;;;;10452286;27;20700;-80
2023/09/03 15:38:06;;;;;;;4.57;4.00;;;;;25.50;102187.00;;;;10422819;27;20911;-78
2023/09/03 15:43:10;;;;;;;4.15;3.63;;;;;25.50;102179.00;;;;10435776;27;20443;-79
2023/09/03 15:48:12;;;;;;;3.92;3.63;;;;;25.40;102168.00;;;;10429628;27;20429;-80
2023/09/03 15:53:14;;;;;;;5.20;3.47;;;;;25.40;102165.00;;;;10440143;27;20251;-78
2023/09/03 15:58:15;;;;;;;8.23;3.42;;;;;25.30;102165.00;;;;10437929;27;20283;-78
2023/09/03 16:03:19;;;;;;;4.57;3.10;;;;;25.20;102167.00;;;;10422533;27;20361;-78
2023/09/03 16:08:20;;;;;;;4.05;3.35;;;;;25.20;102176.00;;;;10444899;27;20200;-79
2023/09/03 16:13:22;;;;;;;3.45;3.00;;;;;25.10;102172.00;;;;10420973;27;21411;-78
2023/09/03 16:18:24;;;;;;;4.07;3.03;;;;;24.90;102169.00;;;;10420413;27;20592;-79
2023/09/03 16:23:25;;;;;;;3.67;3.38;;;;;24.70;102158.00;;;;10438337;27;20526;-80
2023/09/03 16:28:27;;;;;;;4.95;3.50;;;;;24.50;102168.00;;;;10423916;27;20836;-79
2023/09/03 16:33:29;;;;;;;5.45;3.58;;;;;24.30;102161.00;;;;10405341;27;20200;-80
2023/09/03 16:38:30;;;;;;;4.43;3.28;;;;;24.10;102163.00;;;;10403972;27;20888;-79
2023/09/03 16:43:32;;;;;;;4.10;3.70;;;;;24.00;102164.00;;;;10442234;27;20650;-79
2023/09/03 16:48:35;;;;;;;4.30;3.90;;;;;23.80;102164.00;;;;10406224;27;20716;-79
2023/09/03 16:53:36;;;;;;;4.30;3.03;;;;;23.70;102171.00;;;;10414805;27;20240;-80
2023/09/03 16:58:38;;;;;;;3.00;2.75;;;;;23.50;102159.00;;;;10434194;27;20200;-80
2023/09/03 17:03:39;;;;;;;3.53;3.22;;;;;23.30;102162.00;;;;10454687;27;21541;-80
2023/09/03 17:08:40;;;;;;;3.28;3.00;;;;;23.20;102154.00;;;;10451382;27;20269;-79
2023/09/03 17:13:42;;;;;;;3.45;3.03;;;;;23.00;102149.00;;;;10450944;27;20196;-79
2023/09/03 17:18:44;;;;;;;3.45;3.13;;;;;22.80;102158.00;;;;10436277;27;20543;-79
2023/09/03 17:23:45;;;;;;;3.53;3.22;;;;;22.60;102160.00;;;;10435771;27;20227;-78
2023/09/03 17:28:46;;;;;;;3.88;3.55;;;;;22.40;102158.00;;;;10433021;27;20207;-79
2023/09/03 17:33:47;;;;;;;3.40;3.10;;;;;22.30;102154.00;;;;10434446;27;20223;-79
2023/09/03 17:38:49;;;;;;;4.05;3.67;;;;;22.10;102150.00;;;;10432810;27;20929;-79
2023/09/03 17:43:50;;;;;;;3.42;3.13;;;;;21.90;102151.00;;;;10430905;27;20634;-79
2023/09/03 17:48:52;;;;;;;4.68;3.20;;;;;21.80;102159.00;;;;10452549;27;21263;-77
2023/09/03 17:53:53;;;;;;;3.60;3.25;;;;;21.60;102152.00;;;;10451669;27;20211;-79
2023/09/03 17:58:54;;;;;;;3.83;3.40;;;;;21.50;102149.00;;;;10448740;27;20298;-78
2023/09/03 18:03:56;;;;;;;3.45;3.15;;;;;21.30;102147.00;;;;10448261;27;20587;-79
2023/09/03 18:08:57;;;;;;;4.97;3.35;;;;;21.10;102158.00;;;;10444924;27;20204;-77
2023/09/03 18:13:58;;;;;;;3.50;3.03;;;;;20.90;102149.00;;;;10441332;27;21695;-77
2023/09/03 18:19:00;;;;;;;4.47;3.30;;;;;20.70;102145.00;;;;10443664;27;21310;-78
2023/09/03 18:24:01;;;;;;;3.63;3.30;;;;;20.50;102156.00;;;;10426445;28;20303;-80
2023/09/03 18:29:03;;;;;;;4.40;3.42;;;;;20.30;102154.00;;;;10423958;27;20926;-78
2023/09/03 18:34:04;;;;;;;4.57;3.40;;;;;20.10;102142.00;;;;10443928;27;20595;-79
2023/09/03 18:39:06;;;;;;;4.32;3.92;;;;;20.00;102140.00;;;;10424883;27;20226;-80
2023/09/03 18:44:09;;;;;;;3.88;3.47;;;;;19.90;102147.00;;;;10441264;27;20212;-79
2023/09/03 18:49:10;;;;;;;4.40;4.00;;;;;19.70;102152.00;;;;10425254;27;20212;-78
2023/09/03 18:54:12;;;;;;;5.85;4.35;;;;;19.60;102148.00;;;;10447879;27;20308;-77
2023/09/03 18:59:16;;;;;;;5.22;4.22;;;;;19.50;102166.00;;;;10441554;27;21015;-80
2023/09/03 19:04:17;;;;;;;5.15;4.28;;;;;19.30;102159.00;;;;10425332;27;20230;-78
2023/09/03 19:09:19;;;;;;;7.22;5.00;;;;;19.20;102168.00;;;;10423510;27;20224;-78
2023/09/03 19:14:20;;;;;;;4.65;4.20;;;;;19.00;102166.00;;;;10441939;27;20204;-79
2023/09/03 19:19:21;;;;;;;7.38;4.70;;;;;18.80;102165.00;;;;10424730;27;21152;-78
2023/09/03 19:24:23;;;;;;;6.63;5.30;;;;;18.70;102171.00;;;;10441404;27;20223;-79
2023/09/03 19:29:25;;;;;;;6.03;5.53;;;;;18.60;102166.00;;;;10422059;28;20251;-79
2023/09/03 19:34:26;;;;;;;6.15;5.53;;;;;18.40;102163.00;;;;10442207;27;20231;-79
2023/09/03 19:39:27;;;;;;;5.93;5.18;;;;;18.30;102151.00;;;;10424010;27;20651;-78
2023/09/03 19:44:29;;;;;;;5.68;5.15;;;;;18.10;102142.00;;;;10423550;27;21415;-78
2023/09/03 19:49:30;;;;;;;6.00;5.40;;;;;18.00;102147.00;;;;10440292;27;20732;-79
2023/09/03 19:54:31;;;;;;;6.50;5.70;;;;;17.90;102144.00;;;;10440095;27;20212;-78
2023/09/03 19:59:33;;;;;;;6.15;5.55;;;;;17.90;102142.00;;;;10421221;28;20234;-77
2023/09/03 20:04:38;;;;;;;8.57;5.60;;;;;17.80;102140.00;;;;10439165;27;20220;-77
2023/09/03 20:09:44;;;;;;;5.82;5.22;;;;;17.70;102136.00;;;;10404799;27;20204;-79
2023/09/03 20:14:45;;;;;;;6.25;5.20;;;;;17.50;102143.00;;;;10442719;27;20481;-79
2023/09/03 20:19:47;;;;;;;7.40;5.55;;;;;17.40;102142.00;;;;10440389;27;20477;-79
2023/09/03 20:24:48;;;;;;;6.53;5.88;;;;;17.20;102146.00;;;;10416083;27;20223;-79
2023/09/03 20:29:49;;;;;;;7.63;6.72;;;;;17.10;102152.00;;;;10419812;28;20973;-79
2023/09/03 20:34:51;;;;;;;8.15;6.60;;;;;17.00;102149.00;;;;10421035;27;20193;-78
2023/09/03 20:39:52;;;;;;;7.15;6.43;;;;;16.80;102153.00;;;;10418985;27;20610;-78
2023/09/03 20:44:53;;;;;;;7.43;6.45;;;;;16.70;102147.00;;;;10439057;27;20726;-78
2023/09/03 20:49:55;;;;;;;8.95;7.10;;;;;16.70;102154.00;;;;10438278;27;20208;-78
2023/09/03 20:54:56;;;;;;;7.82;7.07;;;;;16.60;102146.00;;;;10422063;27;20322;-78
2023/09/03 21:00:03;;;;;;;7.72;7.03;;;;;16.50;102152.00;;;;10401933;27;20210;-77
2023/09/03 21:05:09;;;;;;;9.93;7.15;;;;;16.40;102159.00;;;;10405408;27;20527;-78
2023/09/03 21:10:10;;;;;;;7.80;7.07;;;;;16.30;102149.00;;;;10438352;27;20613;-77
2023/09/03 21:15:11;;;;;;;8.98;7.43;;;;;16.20;102160.00;;;;10421587;27;20200;-78
2023/09/03 21:20:13;;;;;;;9.48;7.22;;;;;16.10;102151.00;;;;10419295;27;20807;-78
2023/09/03 21:25:17;;;;;;;10.23;6.88;;;;;15.90;102125.00;;;;10439134;27;20323;-79
2023/09/03 21:30:19;;;;;;;8.80;7.90;;;;;15.80;102136.00;;;;10423460;27;20220;-78
2023/09/03 21:35:20;;;;;;;7.43;6.80;;;;;15.80;102136.00;;;;10410661;27;20345;-79
2023/09/03 21:40:25;;;;;;;9.88;8.52;;;;;15.70;102136.00;;;;10447353;27;20205;-78
2023/09/03 21:45:27;;;;;;;9.75;8.30;;;;;15.70;102130.00;;;;10446748;27;20220;-78
2023/09/03 21:50:28;;;;;;;9.30;8.00;;;;;15.70;102146.00;;;;10426682;27;20204;-78
2023/09/03 21:55:29;;;;;;;9.52;8.52;;;;;15.60;102135.00;;;;10426826;27;20203;-79
2023/09/03 22:00:30;;;;;;;10.95;8.35;;;;;15.50;102138.00;;;;10427168;27;20208;-78
2023/09/03 22:05:33;;;;;;;12.07;8.82;;;;;15.50;102129.00;;;;10425814;27;20270;-78
2023/09/03 22:10:35;;;;;;;12.00;8.73;;;;;15.40;102125.00;;;;10445741;27;20714;-78
2023/09/03 22:15:36;;;;;;;9.02;7.97;;;;;15.30;102135.00;;;;10442830;28;20322;-78
2023/09/03 22:20:37;;;;;;;9.25;8.35;;;;;15.30;102143.00;;;;10426985;27;20299;-78
2023/09/03 22:25:39;;;;;;;9.90;8.77;;;;;15.20;102137.00;;;;10443258;27;20226;-77
2023/09/03 22:30:40;;;;;;;10.20;8.95;;;;;15.20;102139.00;;;;10440368;28;20643;-78
2023/09/03 22:35:41;;;;;;;10.15;9.15;;;;;15.10;102134.00;;;;10427471;27;20200;-78
2023/09/03 22:40:43;;;;;;;10.38;9.20;;;;;15.10;102138.00;;;;10440649;27;20204;-78
2023/09/03 22:45:44;;;;;;;10.55;9.45;;;;;15.00;102136.00;;;;10404476;27;20216;-79
2023/09/03 22:50:46;;;;;;;11.10;9.35;;;;;15.00;102132.00;;;;10423839;27;20221;-78
2023/09/03 22:55:47;;;;;;;11.38;9.93;;;;;14.90;102130.00;;;;10442158;27;20280;-79
2023/09/03 23:00:49;;;;;;;11.93;10.55;;;;;14.90;102126.00;;;;10423566;27;20215;-79
2023/09/03 23:05:50;;;;;;;11.35;10.23;;;;;14.90;102121.00;;;;10438811;27;20251;-79
2023/09/03 23:10:52;;;;;;;12.20;10.77;;;;;14.80;102127.00;;;;10423498;27;20220;-79
2023/09/03 23:15:53;;;;;;;11.55;10.35;;;;;14.80;102119.00;;;;10426523;27;20888;-78
2023/09/03 23:20:54;;;;;;;13.98;11.18;;;;;14.80;102128.00;;;;10439311;27;20253;-78
2023/09/03 23:25:56;;;;;;;15.70;12.65;;;;;14.80;102115.00;;;;10442407;27;20338;-78
2023/09/03 23:30:57;;;;;;;14.98;13.38;;;;;14.90;102119.00;;;;10442136;27;20196;-77
2023/09/03 23:35:59;;;;;;;14.25;11.60;;;;;14.90;102107.00;;;;10441249;27;22180;-77
2023/09/03 23:41:00;;;;;;;13.10;11.73;;;;;14.80;102117.00;;;;10441264;27;20204;-78
2023/09/03 23:46:02;;;;;;;15.52;12.70;;;;;14.80;102113.00;;;;10408092;27;20608;-78
2023/09/03 23:51:03;;;;;;;14.13;12.73;;;;;14.70;102116.00;;;;10422050;27;20531;-78
2023/09/03 23:56:05;;;;;;;15.63;13.23;;;;;14.70;102109.00;;;;10425345;27;20314;-80
